createdAt,value
2018-12-08T00:01:04.568Z,1.00
2018-12-08T00:06:08.828Z,1.00
2018-12-08T00:11:11.709Z,1.37
2018-12-08T00:16:14.620Z,1.33
2018-12-08T00:21:17.585Z,1.40
2018-12-08T00:26:20.363Z,1.50
2018-12-08T00:31:40.621Z,1.63
2018-12-08T00:36:43.927Z,1.40
2018-12-08T00:41:46.796Z,1.73
2018-12-08T00:46:49.645Z,1.13
2018-12-08T00:51:52.396Z,1.50
2018-12-08T00:56:55.364Z,2.27
2018-12-08T01:01:58.257Z,2.30
2018-12-08T01:07:01.769Z,2.30
2018-12-08T01:12:04.809Z,2.53
2018-12-08T01:17:07.722Z,2.47
2018-12-08T01:22:10.655Z,2.93
2018-12-08T01:27:13.440Z,2.67
2018-12-08T01:32:16.343Z,2.80
2018-12-08T01:37:19.188Z,3.10
2018-12-08T01:42:22.065Z,3.33
2018-12-08T01:47:25.027Z,2.87
2018-12-08T01:52:27.917Z,3.30
2018-12-08T01:57:30.857Z,3.13
2018-12-08T02:02:34.085Z,3.13
2018-12-08T02:07:37.159Z,3.17
2018-12-08T02:12:40.036Z,3.50
2018-12-08T02:17:42.809Z,3.47
2018-12-08T02:22:45.464Z,2.60
2018-12-08T02:27:48.267Z,3.20
2018-12-08T02:32:51.206Z,3.27
2018-12-08T02:37:54.060Z,3.40
2018-12-08T02:42:56.805Z,3.30
2018-12-08T02:47:59.780Z,3.10
2018-12-08T02:53:02.824Z,3.27
2018-12-08T02:58:05.726Z,2.97
2018-12-08T03:03:08.645Z,2.70
2018-12-08T03:08:11.329Z,2.70
2018-12-08T03:13:14.902Z,3.20
2018-12-08T03:18:17.802Z,3.27
2018-12-08T03:23:20.661Z,2.50
2018-12-08T03:28:23.754Z,3.50
2018-12-08T03:33:26.636Z,2.93
2018-12-08T03:38:29.447Z,2.80
2018-12-08T03:43:32.370Z,2.47
2018-12-08T03:48:35.469Z,3.03
2018-12-08T03:53:38.324Z,2.80
2018-12-08T03:58:41.093Z,3.00
2018-12-08T04:03:44.031Z,2.77
2018-12-08T04:08:46.913Z,2.97
2018-12-08T04:13:49.620Z,2.60
2018-12-08T04:18:53.034Z,3.10
2018-12-08T04:23:55.753Z,3.30
2018-12-08T04:28:58.529Z,2.90
2018-12-08T04:34:01.309Z,3.00
2018-12-08T04:39:06.501Z,3.33
2018-12-08T04:44:10.677Z,3.10
2018-12-08T04:49:13.574Z,2.83
2018-12-08T04:54:16.569Z,2.73
2018-12-08T04:59:19.324Z,2.87
2018-12-08T05:04:22.141Z,2.93
2018-12-08T05:09:24.833Z,2.73
2018-12-08T05:14:27.644Z,2.60
2018-12-08T05:19:30.508Z,3.27
2018-12-08T05:24:33.492Z,3.40
2018-12-08T05:29:36.392Z,3.03
2018-12-08T05:34:39.434Z,3.30
2018-12-08T05:39:42.160Z,2.80
2018-12-08T05:44:45.326Z,3.53
2018-12-08T05:49:48.222Z,3.40
2018-12-08T05:54:50.998Z,3.70
2018-12-08T05:59:53.923Z,3.20
2018-12-08T06:04:56.814Z,3.60
2018-12-08T06:09:59.254Z,3.40
2018-12-08T06:15:02.093Z,3.10
2018-12-08T06:20:05.696Z,3.50
2018-12-08T06:25:19.279Z,3.03
2018-12-08T06:30:22.384Z,3.33
2018-12-08T06:35:25.163Z,3.50
2018-12-08T06:40:29.258Z,2.97
2018-12-08T06:45:32.432Z,3.20
2018-12-08T06:50:35.420Z,2.57
2018-12-08T06:55:38.221Z,3.17
2018-12-08T07:00:41.116Z,2.73
2018-12-08T07:05:43.903Z,2.60
2018-12-08T07:10:46.766Z,2.47
2018-12-08T07:15:49.509Z,2.43
2018-12-08T07:20:52.350Z,2.97
2018-12-08T07:25:55.324Z,2.60
2018-12-08T07:30:58.191Z,2.50
2018-12-08T07:36:00.955Z,2.37
2018-12-08T07:41:03.808Z,2.60
2018-12-08T07:46:06.868Z,2.43
2018-12-08T07:51:09.756Z,2.40
2018-12-08T07:56:12.759Z,2.90
2018-12-08T08:01:15.769Z,2.33
2018-12-08T08:06:18.736Z,2.17
2018-12-08T08:11:21.810Z,2.40
2018-12-08T08:16:24.760Z,2.10
2018-12-08T08:21:27.682Z,1.80
2018-12-08T08:26:30.652Z,2.57
2018-12-08T08:31:33.521Z,2.10
2018-12-08T08:36:36.487Z,2.03
2018-12-08T08:41:39.140Z,1.80
2018-12-08T08:46:42.075Z,2.40
2018-12-08T08:51:45.100Z,1.97
2018-12-08T08:56:47.737Z,1.97
2018-12-08T09:01:50.584Z,1.90
2018-12-08T09:06:53.552Z,1.83
2018-12-08T09:11:56.500Z,2.10
2018-12-08T09:16:59.420Z,1.87
2018-12-08T09:22:05.252Z,2.17
2018-12-08T09:27:08.226Z,1.70
2018-12-08T09:32:11.267Z,1.70
2018-12-08T09:37:14.201Z,1.80
2018-12-08T09:42:17.191Z,1.57
2018-12-08T09:47:20.120Z,1.50
2018-12-08T09:52:24.462Z,1.40
2018-12-08T09:57:27.286Z,1.60
2018-12-08T10:02:30.144Z,1.57
2018-12-08T10:07:32.933Z,1.23
2018-12-08T10:12:35.742Z,1.30
2018-12-08T10:17:38.540Z,1.20
2018-12-08T10:22:41.385Z,1.57
2018-12-08T10:27:44.309Z,1.27
2018-12-08T10:32:47.123Z,1.30
2018-12-08T10:37:49.998Z,1.00
2018-12-08T10:42:52.800Z,1.30
2018-12-08T10:47:55.472Z,1.53
2018-12-08T10:52:59.131Z,1.30
2018-12-08T10:58:01.829Z,1.27
2018-12-08T11:03:10.604Z,1.40
2018-12-08T11:08:13.319Z,1.20
2018-12-08T11:13:16.099Z,1.40
2018-12-08T11:18:19.111Z,1.40
2018-12-08T11:23:21.942Z,1.23
2018-12-08T11:28:24.792Z,1.40
2018-12-08T11:33:27.693Z,1.27
2018-12-08T11:38:30.498Z,1.40
2018-12-08T11:43:33.427Z,1.30
2018-12-08T12:11:39.133Z,1.23
2018-12-08T12:16:43.295Z,1.20
2018-12-08T12:21:46.141Z,1.00
2018-12-08T12:26:49.004Z,1.33
2018-12-08T12:31:51.889Z,1.20
2018-12-08T12:36:54.714Z,1.00
2018-12-08T12:41:57.572Z,1.00
2018-12-08T12:47:00.475Z,1.17
2018-12-08T12:52:03.340Z,1.13
2018-12-08T12:57:06.169Z,0.90
2018-12-08T13:02:09.899Z,1.60
2018-12-08T13:07:12.804Z,0.90
2018-12-08T13:12:15.816Z,1.00
2018-12-08T13:17:18.620Z,1.03
2018-12-08T13:22:21.232Z,1.20
2018-12-08T13:27:24.101Z,1.03
2018-12-08T13:32:26.870Z,1.07
2018-12-08T13:37:29.667Z,1.10
2018-12-08T13:42:32.616Z,1.10
2018-12-08T13:47:35.596Z,1.10
2018-12-08T13:52:38.356Z,1.03
2018-12-08T13:57:41.184Z,1.10
2018-12-08T14:02:43.908Z,1.10
2018-12-08T14:07:46.674Z,1.00
2018-12-08T14:12:49.694Z,0.90
2018-12-08T14:17:52.531Z,1.00
2018-12-08T14:22:55.585Z,1.37
2018-12-08T14:27:58.540Z,1.40
2018-12-08T14:33:01.302Z,1.30
2018-12-08T14:38:04.261Z,1.30
2018-12-08T14:43:07.116Z,1.60
2018-12-08T14:48:09.987Z,1.50
2018-12-08T14:53:12.813Z,1.67
2018-12-08T14:58:15.672Z,1.17
2018-12-08T15:05:25.008Z,1.63
2018-12-08T15:10:27.953Z,1.30
2018-12-08T15:15:30.903Z,1.37
2018-12-08T15:20:33.729Z,1.30
2018-12-08T15:25:36.599Z,1.23
2018-12-08T15:30:39.399Z,1.30
2018-12-08T15:35:42.301Z,1.30
2018-12-08T15:40:45.261Z,1.47
2018-12-08T15:45:48.356Z,1.37
2018-12-08T15:50:51.325Z,1.30
2018-12-08T15:55:54.160Z,1.20
2018-12-08T16:00:56.807Z,1.20
2018-12-08T16:06:00.020Z,1.10
2018-12-08T16:11:02.807Z,1.30
2018-12-08T16:16:05.570Z,1.30
2018-12-08T16:21:08.670Z,1.53
2018-12-08T16:26:11.631Z,1.10
2018-12-08T16:31:14.427Z,1.20
2018-12-08T16:36:17.435Z,1.00
2018-12-08T16:41:20.324Z,1.00
2018-12-08T16:46:23.152Z,1.30
2018-12-08T16:51:26.024Z,1.60
2018-12-08T16:56:28.861Z,1.10
2018-12-08T17:01:31.819Z,1.30
2018-12-08T17:06:34.809Z,1.30
2018-12-08T17:11:37.655Z,1.40
2018-12-08T17:16:40.543Z,1.20
2018-12-08T17:21:43.394Z,1.50
2018-12-08T17:26:46.264Z,1.43
2018-12-08T17:31:49.188Z,1.73
2018-12-08T17:36:51.964Z,1.30
2018-12-08T17:41:54.904Z,1.70
2018-12-08T17:46:57.882Z,1.43
2018-12-08T17:52:00.852Z,1.50
2018-12-08T17:57:03.687Z,1.57
2018-12-08T18:02:06.652Z,1.90
2018-12-08T18:07:09.468Z,1.70
2018-12-08T18:12:12.436Z,1.90
2018-12-08T18:17:15.321Z,1.90
2018-12-08T18:22:18.433Z,2.40
2018-12-08T18:27:21.504Z,2.07
2018-12-08T18:32:24.387Z,2.20
2018-12-08T18:37:27.220Z,2.17
2018-12-08T18:42:30.063Z,2.13
2018-12-08T18:47:33.026Z,2.20
2018-12-08T18:52:36.082Z,2.23
2018-12-08T18:57:38.836Z,2.13
2018-12-08T19:02:41.713Z,2.20
2018-12-08T19:07:44.605Z,2.00
2018-12-08T19:12:47.577Z,2.27
2018-12-08T19:17:50.300Z,2.30
2018-12-08T19:22:53.140Z,2.37
2018-12-08T19:27:55.968Z,2.53
2018-12-08T19:32:58.795Z,2.50
2018-12-08T19:38:01.544Z,2.30
2018-12-08T19:43:04.281Z,2.60
2018-12-08T19:48:07.149Z,2.43
2018-12-08T19:53:09.965Z,2.20
2018-12-08T19:58:12.812Z,2.07
2018-12-08T20:03:15.695Z,1.90
2018-12-08T20:08:18.428Z,2.23
2018-12-08T20:13:21.164Z,2.00
2018-12-08T20:18:23.826Z,2.30
2018-12-08T20:23:26.715Z,2.30
2018-12-08T20:28:29.419Z,2.23
2018-12-08T20:33:32.068Z,1.80
2018-12-08T20:38:34.931Z,2.17
2018-12-08T20:43:37.612Z,2.13
2018-12-08T20:48:40.475Z,2.30
2018-12-08T20:53:43.337Z,2.03
2018-12-08T20:58:46.227Z,2.20
2018-12-08T21:03:48.908Z,2.40
2018-12-08T21:08:51.653Z,2.20
2018-12-08T21:13:54.458Z,2.23
2018-12-08T21:18:57.952Z,2.30
2018-12-08T21:24:01.009Z,2.17
2018-12-08T21:29:05.000Z,2.67
2018-12-08T21:34:07.885Z,2.70
2018-12-08T21:39:10.816Z,2.53
2018-12-08T21:44:13.684Z,2.30
2018-12-08T21:49:16.542Z,2.33
2018-12-08T21:54:19.324Z,2.10
2018-12-08T21:59:22.047Z,2.70
2018-12-08T22:04:24.600Z,2.13
2018-12-08T22:09:27.399Z,2.23
2018-12-08T22:14:30.257Z,2.47
2018-12-08T22:19:33.043Z,2.00
2018-12-08T22:24:35.792Z,2.23
2018-12-08T22:29:38.671Z,2.30
2018-12-08T22:34:41.410Z,1.93
2018-12-08T22:39:44.283Z,1.70
2018-12-08T22:44:47.200Z,2.17
2018-12-08T22:49:49.932Z,2.10
2018-12-08T22:54:52.671Z,2.07
2018-12-08T22:59:55.543Z,2.33
2018-12-08T23:04:58.293Z,2.10
2018-12-08T23:10:01.231Z,2.07
2018-12-08T23:15:04.392Z,1.83
2018-12-08T23:20:07.429Z,2.43
2018-12-08T23:25:10.256Z,1.70
2018-12-08T23:30:16.005Z,2.10
2018-12-08T23:35:19.029Z,1.80
2018-12-08T23:40:21.857Z,2.33
2018-12-08T23:45:24.699Z,1.80
2018-12-08T23:50:27.632Z,2.23
2018-12-08T23:55:30.512Z,2.60
